Aviation Digital Data Service (ADDS)

Output produced by METARs form (1022 UTC 19 November 2017)
found at http://aviationweather.gov/adds/metars/
 
KBPT 190953Z AUTO 36013KT 10SM CLR 10/02 A3019 RMK AO2 SLP224 T01000022